createdAt,value
2022-07-27T00:01:08.865Z,101408.28
2022-07-27T00:03:36.718Z,101413.75
2022-07-27T00:06:04.879Z,101413.75
2022-07-27T00:08:32.710Z,101409.97
2022-07-27T00:11:01.875Z,101410.19
2022-07-27T00:13:29.644Z,101417.34
2022-07-27T00:15:57.749Z,101412.91
2022-07-27T00:18:25.557Z,101416.50
2022-07-27T00:20:53.404Z,101414.59
2022-07-27T00:23:21.198Z,101407.09
2022-07-27T00:25:49.345Z,101421.13
2022-07-27T00:28:18.557Z,101425.53
2022-07-27T00:30:46.421Z,101421.97
2022-07-27T00:33:17.369Z,101418.38
2022-07-27T00:35:46.023Z,101415.66
2022-07-27T00:38:13.836Z,101415.66
2022-07-27T00:40:41.713Z,101416.50
2022-07-27T00:43:09.634Z,101411.03
2022-07-27T00:45:39.195Z,101413.38
2022-07-27T00:48:07.334Z,101421.13
2022-07-27T00:50:35.387Z,101421.13
2022-07-27T00:53:04.913Z,101423.84
2022-07-27T00:55:33.501Z,101417.53
2022-07-27T00:58:01.368Z,101423.00
2022-07-27T01:00:29.371Z,101424.91
2022-07-27T01:02:58.637Z,101419.44
2022-07-27T01:05:36.443Z,101421.34
2022-07-27T01:08:06.811Z,101417.75
2022-07-27T01:10:34.859Z,101415.88
2022-07-27T01:13:02.964Z,101420.28
2022-07-27T01:15:31.038Z,101421.13
2022-07-27T01:18:04.763Z,101419.44
2022-07-27T01:20:33.767Z,101415.88
2022-07-27T01:23:03.002Z,101417.53
2022-07-27T01:25:31.065Z,101422.19
2022-07-27T01:27:58.815Z,101418.59
2022-07-27T01:30:30.448Z,101420.28
2022-07-27T01:33:02.257Z,101425.75
2022-07-27T01:35:30.609Z,101424.06
2022-07-27T01:37:58.471Z,101419.44
2022-07-27T01:40:27.713Z,101413.97
2022-07-27T01:42:55.484Z,101411.25
2022-07-27T01:45:23.671Z,101412.09
2022-07-27T01:47:51.495Z,101401.63
2022-07-27T01:50:19.303Z,101408.50
2022-07-27T01:52:47.176Z,101408.50
2022-07-27T01:55:15.028Z,101406.63
2022-07-27T01:57:44.163Z,101409.56
2022-07-27T02:00:12.770Z,101409.56
2022-07-27T02:02:40.695Z,101413.13
2022-07-27T02:05:11.867Z,101410.41
2022-07-27T02:07:40.968Z,101395.72
2022-07-27T02:10:09.185Z,101402.44
2022-07-27T02:12:35.980Z,101406.00
2022-07-27T02:15:08.628Z,101408.72
2022-07-27T02:17:43.649Z,101406.84
2022-07-27T02:20:13.017Z,101402.19
2022-07-27T02:22:40.785Z,101406.84
2022-07-27T02:25:09.752Z,101406.00
2022-07-27T02:27:37.604Z,101397.41
2022-07-27T02:30:09.368Z,101406.00
2022-07-27T02:32:37.163Z,101402.19
2022-07-27T02:35:18.897Z,101399.47
2022-07-27T02:37:48.410Z,101407.66
2022-07-27T02:40:17.483Z,101406.84
2022-07-27T02:42:45.546Z,101408.72
2022-07-27T02:45:14.895Z,101412.31
2022-07-27T02:47:42.984Z,101413.13
2022-07-27T02:50:11.302Z,101420.50
2022-07-27T02:52:39.168Z,101412.56
2022-07-27T02:55:07.684Z,101415.03
2022-07-27T02:57:37.898Z,101413.38
2022-07-27T03:00:07.552Z,101416.13
2022-07-27T03:02:36.708Z,101318.78
2022-07-27T03:05:05.156Z,101411.72
2022-07-27T03:07:33.312Z,101420.50
2022-07-27T03:10:01.192Z,101416.94
2022-07-27T03:12:29.002Z,101421.59
2022-07-27T03:14:57.763Z,101421.34
2022-07-27T03:17:25.981Z,101423.22
2022-07-27T03:19:55.190Z,101428.69
2022-07-27T03:22:22.981Z,101430.59
2022-07-27T03:24:50.826Z,101425.13
2022-07-27T03:27:18.667Z,101419.91
2022-07-27T03:29:46.512Z,101417.75
2022-07-27T03:32:14.355Z,101424.06
2022-07-27T03:34:42.160Z,101423.22
2022-07-27T03:37:11.710Z,101419.66
2022-07-27T03:39:39.581Z,101412.75
2022-07-27T03:42:07.633Z,101422.19
2022-07-27T03:44:35.388Z,101416.13
2022-07-27T03:47:03.553Z,101416.72
2022-07-27T03:49:32.093Z,101417.75
2022-07-27T03:52:00.033Z,101431.22
2022-07-27T03:54:29.280Z,101438.34
2022-07-27T03:56:57.477Z,101430.38
2022-07-27T03:59:27.435Z,101437.53
2022-07-27T04:01:55.390Z,101435.63
2022-07-27T04:04:23.191Z,101430.38
2022-07-27T04:06:51.439Z,101435.63
2022-07-27T04:09:19.867Z,101442.97
2022-07-27T04:11:51.153Z,101438.34
2022-07-27T04:14:19.905Z,101442.97
2022-07-27T04:16:48.067Z,101449.28
2022-07-27T04:19:16.182Z,101442.97
2022-07-27T04:21:44.190Z,101445.09
2022-07-27T04:24:11.985Z,101445.72
2022-07-27T04:26:40.020Z,101444.03
2022-07-27T04:29:09.507Z,101452.03
2022-07-27T04:31:37.655Z,101447.41
2022-07-27T04:34:05.537Z,101438.34
2022-07-27T04:36:33.592Z,101447.84
2022-07-27T04:39:01.357Z,101450.13
2022-07-27T04:41:29.653Z,101450.34
2022-07-27T04:43:58.695Z,101454.75
2022-07-27T04:46:29.675Z,101453.91
2022-07-27T04:48:57.835Z,101452.88
2022-07-27T04:51:25.755Z,101455.59
2022-07-27T04:53:58.636Z,101457.50
2022-07-27T04:56:26.816Z,101461.06
2022-07-27T04:58:54.637Z,101463.78
2022-07-27T05:01:23.858Z,101460.22
2022-07-27T05:03:53.149Z,101461.06
2022-07-27T05:06:21.427Z,101463.78
2022-07-27T05:08:49.236Z,101470.94
2022-07-27T05:11:17.084Z,101468.22
2022-07-27T05:13:44.842Z,101472.00
2022-07-27T05:16:13.088Z,101472.84
2022-07-27T05:18:40.973Z,101471.75
2022-07-27T05:21:10.117Z,101469.69
2022-07-27T05:23:37.889Z,101475.56
2022-07-27T05:26:06.193Z,101481.88
2022-07-27T05:28:33.941Z,101478.31
2022-07-27T05:31:01.747Z,101476.41
2022-07-27T05:33:29.620Z,101475.56
2022-07-27T05:35:57.449Z,101481.03
2022-07-27T05:38:27.029Z,101482.94
2022-07-27T05:40:54.820Z,101483.16
2022-07-27T05:43:22.602Z,101482.94
2022-07-27T05:45:50.903Z,101483.78
2022-07-27T05:48:18.711Z,101491.97
2022-07-27T05:50:46.538Z,101486.94
2022-07-27T05:53:14.384Z,101494.06
2022-07-27T05:55:59.065Z,101498.28
2022-07-27T05:58:27.560Z,101512.75
2022-07-27T06:00:56.438Z,101507.28
2022-07-27T06:03:24.908Z,101507.28
2022-07-27T06:05:52.773Z,101505.38
2022-07-27T06:08:19.611Z,101510.84
2022-07-27T06:10:48.722Z,101512.53
2022-07-27T06:13:16.538Z,101503.50
2022-07-27T06:15:44.739Z,101506.22
2022-07-27T06:18:18.202Z,101516.56
2022-07-27T06:20:47.757Z,101431.84
2022-07-27T06:23:15.533Z,101519.06
2022-07-27T06:25:43.738Z,101507.97
2022-07-27T06:28:12.944Z,101518.22
2022-07-27T06:30:43.131Z,101517.16
2022-07-27T06:33:10.885Z,101519.06
2022-07-27T06:35:39.334Z,101511.69
2022-07-27T06:38:07.205Z,101511.69
2022-07-27T06:40:35.452Z,101512.75
2022-07-27T06:43:03.322Z,101519.06
2022-07-27T06:45:33.003Z,101518.22
2022-07-27T06:48:00.790Z,101517.16
2022-07-27T06:50:28.568Z,101512.75
2022-07-27T06:52:56.381Z,101519.53
2022-07-27T06:55:24.498Z,101517.41
2022-07-27T06:57:52.333Z,101516.31
2022-07-27T07:00:20.124Z,101530.00
2022-07-27T07:02:59.075Z,101518.47
2022-07-27T07:05:27.411Z,101521.78
2022-07-27T07:07:55.429Z,101523.47
2022-07-27T07:10:24.120Z,101516.31
2022-07-27T07:12:55.545Z,101514.69
2022-07-27T07:15:24.787Z,101519.06
2022-07-27T07:17:52.535Z,101521.78
2022-07-27T07:20:21.641Z,101515.50
2022-07-27T07:22:49.693Z,101520.94
2022-07-27T07:25:18.055Z,101511.31
2022-07-27T07:27:46.202Z,101527.25
2022-07-27T07:30:14.405Z,101529.16
2022-07-27T07:32:42.155Z,101540.94
2022-07-27T07:35:11.663Z,101533.81
2022-07-27T07:37:41.261Z,101526.41
2022-07-27T07:40:41.392Z,101529.16
2022-07-27T07:43:00.090Z,101530.00
2022-07-27T07:45:28.929Z,101523.09
2022-07-27T07:47:56.747Z,101524.78
2022-07-27T07:50:24.987Z,101514.28
2022-07-27T07:52:54.610Z,101514.69
2022-07-27T07:55:22.628Z,101521.19
2022-07-27T07:57:50.708Z,101523.69
2022-07-27T08:00:19.730Z,101512.59
2022-07-27T08:02:47.930Z,101524.78
2022-07-27T08:05:15.807Z,101525.63
2022-07-27T08:07:44.099Z,101523.09
2022-07-27T08:10:13.929Z,101524.53
2022-07-27T08:12:43.833Z,101528.34
2022-07-27T08:15:12.606Z,101529.16
2022-07-27T08:17:41.059Z,101532.72
2022-07-27T08:20:09.621Z,101542.22
2022-07-27T08:22:37.513Z,101539.28
2022-07-27T08:25:05.879Z,101543.91
2022-07-27T08:27:40.706Z,101542.81
2022-07-27T08:30:12.556Z,101540.09
2022-07-27T08:32:50.337Z,101493.44
2022-07-27T08:35:18.985Z,101530.91
2022-07-27T08:37:46.771Z,101540.34
2022-07-27T08:43:05.055Z,101539.50
2022-07-27T08:45:33.703Z,101543.91
2022-07-27T08:48:01.543Z,101539.50
2022-07-27T08:50:30.619Z,101544.13
2022-07-27T08:53:03.242Z,101541.38
2022-07-27T08:55:31.533Z,101538.66
2022-07-27T08:58:02.999Z,101535.91
2022-07-27T09:00:33.071Z,101542.22
2022-07-27T09:03:01.015Z,101530.47
2022-07-27T09:05:37.594Z,101534.03
2022-07-27T09:08:12.553Z,101535.09
2022-07-27T09:10:40.372Z,101535.91
2022-07-27T09:13:21.654Z,101524.16
2022-07-27T09:18:40.310Z,101535.91
2022-07-27T09:21:12.381Z,101545.38
2022-07-27T09:23:40.384Z,101546.84
2022-07-27T09:26:29.630Z,101541.59
2022-07-27T09:29:00.342Z,101538.88
2022-07-27T09:31:29.562Z,101542.66
2022-07-27T09:33:58.800Z,101541.84
2022-07-27T09:36:28.140Z,101538.03
2022-07-27T09:39:00.148Z,101538.88
2022-07-27T09:41:29.854Z,101539.72
2022-07-27T09:46:48.411Z,101531.72
2022-07-27T09:49:28.100Z,101536.13
2022-07-27T09:51:59.934Z,101529.84
2022-07-27T09:54:28.663Z,101534.25
2022-07-27T09:57:01.446Z,101528.78
2022-07-27T09:59:29.337Z,101531.72
2022-07-27T10:01:58.825Z,101529.00
2022-07-27T10:04:26.868Z,101535.28
2022-07-27T10:07:05.282Z,101532.81
2022-07-27T10:09:35.905Z,101538.88
2022-07-27T10:12:04.627Z,101536.13
2022-07-27T10:14:33.398Z,101538.88
2022-07-27T10:17:03.038Z,101532.81
2022-07-27T10:19:35.505Z,101527.94
2022-07-27T10:22:03.725Z,101540.75
2022-07-27T10:24:33.893Z,101539.72
2022-07-27T10:27:18.696Z,101540.75
2022-07-27T10:29:47.898Z,101538.88
2022-07-27T10:32:24.070Z,101541.59
2022-07-27T10:34:51.924Z,101543.28
2022-07-27T10:37:26.176Z,101540.75
2022-07-27T10:40:15.021Z,101539.72
2022-07-27T10:42:43.129Z,101530.47
2022-07-27T10:45:11.387Z,101527.09
2022-07-27T10:47:42.560Z,101536.13
2022-07-27T10:50:32.615Z,101531.13
2022-07-27T10:53:05.059Z,101537.81
2022-07-27T10:55:51.639Z,101530.66
2022-07-27T10:58:44.645Z,101541.38
2022-07-27T11:01:14.824Z,101541.38
2022-07-27T11:03:52.823Z,101540.56
2022-07-27T11:06:55.410Z,101537.81
2022-07-27T11:12:10.324Z,101539.72
2022-07-27T11:14:46.705Z,101537.81
2022-07-27T11:17:50.574Z,101533.19
2022-07-27T11:20:03.891Z,101536.75
2022-07-27T11:23:03.130Z,101529.63
2022-07-27T11:25:21.354Z,101527.72
2022-07-27T11:27:49.615Z,101532.34
2022-07-27T11:30:24.962Z,101520.56
2022-07-27T11:32:52.824Z,101515.09
2022-07-27T11:35:22.018Z,101512.38
2022-07-27T11:38:00.309Z,101498.72
2022-07-27T11:43:33.942Z,101497.03
2022-07-27T11:46:15.444Z,101499.75
2022-07-27T11:49:10.393Z,101501.44
2022-07-27T11:51:41.558Z,101498.72
2022-07-27T11:54:10.168Z,101495.97
2022-07-27T11:56:38.935Z,101500.38
2022-07-27T11:59:08.900Z,101490.28
2022-07-27T12:01:38.532Z,101494.91
2022-07-27T12:04:18.919Z,101482.09
2022-07-27T12:06:50.239Z,101478.53
2022-07-27T12:09:18.363Z,101481.25
2022-07-27T12:11:50.168Z,101484.81
2022-07-27T12:14:18.224Z,101481.25
2022-07-27T12:16:46.614Z,101476.63
2022-07-27T12:19:22.415Z,101472.00
2022-07-27T12:21:54.133Z,101470.31
2022-07-27T12:24:33.779Z,101469.47
2022-07-27T12:27:06.791Z,101472.00
2022-07-27T12:29:35.033Z,101465.69
2022-07-27T12:32:04.311Z,101470.09
2022-07-27T12:34:36.543Z,101459.16
2022-07-27T12:37:13.817Z,101463.56
2022-07-27T12:39:43.174Z,101463.56
2022-07-27T12:42:13.486Z,101457.72
2022-07-27T12:44:42.047Z,101457.28
2022-07-27T12:47:28.274Z,101455.34
2022-07-27T12:50:04.428Z,101455.34
2022-07-27T12:52:33.960Z,101449.06
2022-07-27T12:55:01.855Z,101451.81
2022-07-27T12:57:53.874Z,101454.53
2022-07-27T13:00:18.868Z,101452.63
2022-07-27T13:02:46.785Z,101458.91
2022-07-27T13:05:15.373Z,101463.56
2022-07-27T13:07:46.050Z,101460.81
2022-07-27T13:10:14.082Z,101458.91
2022-07-27T13:12:42.009Z,101443.25
2022-07-27T13:15:10.364Z,101461.66
2022-07-27T13:17:38.768Z,101464.38
2022-07-27T13:20:09.813Z,101469.00
2022-07-27T13:22:37.660Z,101465.22
2022-07-27T13:25:16.285Z,101467.97
2022-07-27T13:27:44.584Z,101460.22
2022-07-27T13:30:13.529Z,101470.69
2022-07-27T13:32:41.450Z,101458.75
2022-07-27T13:35:10.182Z,101467.97
2022-07-27T13:37:38.371Z,101473.44
2022-07-27T13:40:08.953Z,101466.91
2022-07-27T13:42:36.808Z,101464.63
2022-07-27T13:45:10.036Z,101474.25
2022-07-27T13:47:39.024Z,101473.44
2022-07-27T13:50:13.326Z,101479.72
2022-07-27T13:52:46.152Z,101470.53
2022-07-27T13:55:15.946Z,101477.00
2022-07-27T13:57:44.160Z,101472.59
2022-07-27T14:00:13.073Z,101466.06
2022-07-27T14:02:41.779Z,101477.84
2022-07-27T14:05:13.133Z,101463.34
2022-07-27T14:07:41.934Z,101463.34
2022-07-27T14:10:23.977Z,101464.16
2022-07-27T14:12:56.902Z,101457.03
2022-07-27T14:15:26.781Z,101456.19
2022-07-27T14:17:54.761Z,101465.22
2022-07-27T14:20:22.738Z,101462.50
2022-07-27T14:22:50.557Z,101459.75
2022-07-27T14:25:18.367Z,101458.91
2022-07-27T14:27:47.046Z,101455.13
2022-07-27T14:30:20.586Z,101448.81
2022-07-27T14:32:48.880Z,101437.88
2022-07-27T14:35:16.695Z,101441.47
2022-07-27T14:37:44.814Z,101438.72
2022-07-27T14:40:13.576Z,101438.72
2022-07-27T14:42:41.551Z,101433.03
2022-07-27T14:45:12.687Z,101425.91
2022-07-27T14:47:41.915Z,101425.91
2022-07-27T14:50:09.972Z,101419.38
2022-07-27T14:52:37.766Z,101419.59
2022-07-27T14:55:06.196Z,101413.28
2022-07-27T14:57:34.449Z,101420.66
2022-07-27T15:00:09.197Z,101417.69
2022-07-27T15:02:37.406Z,101416.88
2022-07-27T15:05:08.235Z,101424.84
2022-07-27T15:07:36.030Z,101419.59
2022-07-27T15:10:04.033Z,101411.41
2022-07-27T15:12:37.549Z,101414.97
2022-07-27T15:15:08.351Z,101404.94
2022-07-27T15:17:37.750Z,101419.59
2022-07-27T15:20:08.672Z,101413.28
2022-07-27T15:22:36.672Z,101413.97
2022-07-27T15:25:04.774Z,101414.13
2022-07-27T15:27:33.054Z,101416.88
2022-07-27T15:30:00.895Z,101408.66
2022-07-27T15:32:28.667Z,101411.41
2022-07-27T15:34:58.153Z,101397.72
2022-07-27T15:37:27.311Z,101400.47
2022-07-27T15:39:55.165Z,101402.97
2022-07-27T15:42:22.948Z,101390.16
2022-07-27T15:44:50.807Z,101389.31
2022-07-27T15:47:19.044Z,101390.16
2022-07-27T15:49:46.853Z,101390.16
2022-07-27T15:52:14.749Z,101383.84
2022-07-27T15:54:45.765Z,101389.31
2022-07-27T15:57:14.065Z,101381.94
2022-07-27T15:59:41.961Z,101374.59
2022-07-27T16:02:10.162Z,101376.47
2022-07-27T16:04:38.730Z,101375.63
2022-07-27T16:07:06.617Z,101372.91
2022-07-27T16:09:34.425Z,101372.06
2022-07-27T16:12:03.649Z,101370.19
2022-07-27T16:14:31.493Z,101354.22
2022-07-27T16:17:02.336Z,101356.50
2022-07-27T16:19:30.103Z,101354.00
2022-07-27T16:21:57.920Z,101347.09
2022-07-27T16:24:26.311Z,101354.81
2022-07-27T16:26:54.939Z,101348.31
2022-07-27T16:29:24.223Z,101340.31
2022-07-27T16:31:54.816Z,101343.91
2022-07-27T16:34:22.697Z,101350.41
2022-07-27T16:36:50.968Z,101347.69
2022-07-27T16:39:18.874Z,101356.72
2022-07-27T16:41:47.264Z,101359.25
2022-07-27T16:44:15.617Z,101356.34
2022-07-27T16:46:44.863Z,101356.72
2022-07-27T16:49:13.454Z,101359.47
2022-07-27T16:51:41.661Z,101355.31
2022-07-27T16:54:09.493Z,101359.03
2022-07-27T16:56:37.733Z,101355.44
2022-07-27T16:59:05.742Z,101355.19
2022-07-27T17:01:34.110Z,101353.56
2022-07-27T17:04:03.408Z,101353.56
2022-07-27T17:06:32.005Z,101353.56
2022-07-27T17:08:59.856Z,101344.13
2022-07-27T17:11:27.656Z,101344.94
2022-07-27T17:13:58.983Z,101350.81
2022-07-27T17:16:27.895Z,101358.19
2022-07-27T17:18:55.798Z,101358.19
2022-07-27T17:21:25.319Z,101353.56
2022-07-27T17:23:53.458Z,101359.25
2022-07-27T17:26:24.296Z,101361.97
2022-07-27T17:28:53.194Z,101366.38
2022-07-27T17:31:22.025Z,101358.19
2022-07-27T17:33:50.271Z,101357.13
2022-07-27T17:36:18.561Z,101356.50
2022-07-27T17:38:47.961Z,101354.59
2022-07-27T17:41:21.748Z,101359.25
2022-07-27T17:43:52.068Z,101359.25
2022-07-27T17:46:20.327Z,101363.03
2022-07-27T17:48:48.205Z,101364.94
2022-07-27T17:51:16.083Z,101354.81
2022-07-27T17:53:43.878Z,101360.28
2022-07-27T17:56:13.395Z,101359.47
2022-07-27T17:58:42.894Z,101360.28
2022-07-27T18:01:10.726Z,101359.47
2022-07-27T18:03:38.532Z,101354.00
2022-07-27T18:06:07.205Z,101362.19
2022-07-27T18:08:35.002Z,101360.06
2022-07-27T18:11:02.830Z,101349.34
2022-07-27T18:13:38.995Z,101359.47
2022-07-27T18:16:08.039Z,101360.28
2022-07-27T18:18:37.175Z,101363.03
2022-07-27T18:21:05.302Z,101356.72
2022-07-27T18:23:33.203Z,101367.66
2022-07-27T18:26:01.360Z,101364.94
2022-07-27T18:28:29.135Z,101361.34
2022-07-27T18:30:58.342Z,101367.66
2022-07-27T18:33:26.231Z,101359.47
2022-07-27T18:36:05.205Z,101368.72
2022-07-27T18:38:33.072Z,101356.94
2022-07-27T18:41:00.895Z,101354.22
2022-07-27T18:43:29.081Z,101351.47
2022-07-27T18:45:58.760Z,101356.94
2022-07-27T18:48:27.511Z,101357.78
2022-07-27T18:50:55.401Z,101367.06
2022-07-27T18:53:23.362Z,101360.50
2022-07-27T18:55:56.002Z,101371.22
2022-07-27T18:58:24.646Z,101361.34
2022-07-27T19:00:52.684Z,101364.94
2022-07-27T19:03:24.731Z,101363.03
2022-07-27T19:05:56.075Z,101368.28
2022-07-27T19:08:24.093Z,101368.50
2022-07-27T19:10:52.397Z,101368.50
2022-07-27T19:13:20.311Z,101363.25
2022-07-27T19:15:48.716Z,101364.09
2022-07-27T19:18:16.518Z,101370.38
2022-07-27T19:20:45.777Z,101367.44
2022-07-27T19:23:13.710Z,101358.03
2022-07-27T19:25:41.920Z,101372.06
2022-07-27T19:28:09.762Z,101368.50
2022-07-27T19:30:38.740Z,101375.63
2022-07-27T19:33:06.975Z,101371.44
2022-07-27T19:35:35.179Z,101378.59
2022-07-27T19:38:04.340Z,101376.91
2022-07-27T19:40:47.465Z,101377.75
2022-07-27T19:43:15.880Z,101379.66
2022-07-27T19:45:44.399Z,101374.19
2022-07-27T19:48:12.334Z,101376.91
2022-07-27T19:50:40.583Z,101387.84
2022-07-27T19:53:10.927Z,101392.47
2022-07-27T19:55:39.185Z,101392.47
2022-07-27T19:58:07.009Z,101390.00
2022-07-27T20:00:34.836Z,101397.94
2022-07-27T20:03:03.264Z,101393.31
2022-07-27T20:05:31.353Z,101396.88
2022-07-27T20:07:59.209Z,101396.06
2022-07-27T20:10:28.458Z,101400.69
2022-07-27T20:12:56.386Z,101397.94
2022-07-27T20:15:24.445Z,101397.94
2022-07-27T20:17:52.280Z,101404.50
2022-07-27T20:20:20.302Z,101400.69
2022-07-27T20:22:48.173Z,101399.88
2022-07-27T20:25:16.110Z,101401.78
2022-07-27T20:27:45.909Z,101410.81
2022-07-27T20:30:16.201Z,101402.59
2022-07-27T20:32:44.159Z,101401.78
2022-07-27T20:35:11.984Z,101399.03
2022-07-27T20:37:40.556Z,101404.25
2022-07-27T20:40:11.384Z,101396.06
2022-07-27T20:42:40.274Z,101399.03
2022-07-27T20:45:14.340Z,101399.88
2022-07-27T20:47:42.810Z,101406.16
2022-07-27T20:50:11.902Z,101407.22
2022-07-27T20:52:39.740Z,101412.69
2022-07-27T20:55:08.267Z,101410.81
2022-07-27T20:57:36.603Z,101405.56
2022-07-27T21:00:04.880Z,101402.59
2022-07-27T21:02:34.076Z,101398.19
2022-07-27T21:05:01.943Z,101408.88
2022-07-27T21:07:30.063Z,101412.44
2022-07-27T21:09:58.108Z,101408.06
2022-07-27T21:12:25.914Z,101408.06
2022-07-27T21:14:54.232Z,101412.69
2022-07-27T21:17:23.491Z,101411.88
2022-07-27T21:19:53.356Z,101407.22
2022-07-27T21:22:21.295Z,101411.88
2022-07-27T21:24:49.669Z,101416.28
2022-07-27T21:27:21.024Z,101410.19
2022-07-27T21:29:49.571Z,101415.66
2022-07-27T21:32:17.521Z,101419.22
2022-07-27T21:34:45.563Z,101423.84
2022-07-27T21:37:15.148Z,101412.91
2022-07-27T21:39:45.613Z,101423.00
2022-07-27T21:42:13.415Z,101410.19
2022-07-27T21:44:41.702Z,101406.63
2022-07-27T21:47:13.776Z,101411.25
2022-07-27T21:49:42.388Z,101408.50
2022-07-27T21:52:11.183Z,101408.50
2022-07-27T21:54:40.555Z,101406.84
2022-07-27T21:57:08.884Z,101404.09
2022-07-27T21:59:36.667Z,101408.50
2022-07-27T22:02:04.569Z,101406.84
2022-07-27T22:04:32.483Z,101403.03
2022-07-27T22:07:00.700Z,101412.09
2022-07-27T22:09:28.535Z,101410.19
2022-07-27T22:11:57.778Z,101405.78
2022-07-27T22:14:25.609Z,101412.09
2022-07-27T22:16:54.030Z,101419.44
2022-07-27T22:19:22.008Z,101418.38
2022-07-27T22:21:49.810Z,101413.97
2022-07-27T22:24:17.915Z,101419.44
2022-07-27T22:26:46.453Z,101426.59
2022-07-27T22:29:15.582Z,101422.19
2022-07-27T22:31:43.566Z,101422.41
2022-07-27T22:34:11.790Z,101420.50
2022-07-27T22:36:39.819Z,101412.31
2022-07-27T22:39:07.631Z,101414.19
2022-07-27T22:41:35.503Z,101413.13
2022-07-27T22:44:03.343Z,101416.34
2022-07-27T22:46:33.145Z,101412.31
2022-07-27T22:49:01.000Z,101407.91
2022-07-27T22:51:50.306Z,101421.59
2022-07-27T22:54:17.419Z,101420.75
2022-07-27T22:56:45.408Z,101422.66
2022-07-27T22:59:13.202Z,101430.84
2022-07-27T23:01:45.942Z,101432.72
2022-07-27T23:04:16.108Z,101430.84
2022-07-27T23:06:44.747Z,101438.00
2022-07-27T23:09:12.573Z,101436.97
2022-07-27T23:11:40.368Z,101445.34
2022-07-27T23:14:08.615Z,101448.09
2022-07-27T23:16:36.777Z,101440.72
2022-07-27T23:19:05.990Z,101438.00
2022-07-27T23:21:33.798Z,101430.59
2022-07-27T23:24:01.723Z,101432.53
2022-07-27T23:26:33.096Z,101439.88
2022-07-27T23:29:01.478Z,101434.41
2022-07-27T23:31:29.285Z,101437.16
2022-07-27T23:33:57.180Z,101442.63
2022-07-27T23:36:26.803Z,101433.56
2022-07-27T23:38:54.575Z,101437.16
2022-07-27T23:41:22.409Z,101433.56
2022-07-27T23:43:50.212Z,101434.41
2022-07-27T23:46:18.439Z,101430.84
2022-07-27T23:48:46.354Z,101439.03
2022-07-27T23:51:17.803Z,101441.78
2022-07-27T23:53:47.615Z,101431.91
2022-07-27T23:56:15.892Z,101437.38
2022-07-27T23:58:43.666Z,101425.59
